Time;durP1;ratioP1;P1;durP2;ratioP2;P2;SDS_P1;SDS_P2;PMS_P1;PMS_P2;Temp;Humidity;BMP_temperature;BMP_pressure;BME280_temperature;BME280_humidity;BME280_pressure;Samples;Min_cycle;Max_cycle;Signal;HPM_P1;HPM_P2
2022/01/27 00:00:46;;;;;;;;;;;;;;;-7.62;96.17;99583.03;5093234;28;20014;-66
2022/01/27 00:03:19;;;;;;;;;;;;;;;-7.61;96.13;99572.91;5093424;28;20481;-64
2022/01/27 00:05:50;;;;;;;;;;;;;;;-7.78;96.60;99572.91;5093341;28;20374;-67
2022/01/27 00:08:21;;;;;;;;;;;;;;;-7.88;97.63;99567.00;5093480;28;19930;-62
2022/01/27 00:10:55;;;;;;;;;;;;;;;-7.90;98.03;99561.09;5095617;28;20309;-65
2022/01/27 00:13:29;;;;;;;;;;;;;;;-7.81;98.15;99569.53;5095613;28;19927;-63
2022/01/27 00:16:10;;;;;;;;;;;;;;;-7.85;98.09;99560.28;5095438;28;19931;-62
2022/01/27 00:18:38;;;;;;;;;;;;;;;-7.74;98.63;99558.59;5095478;28;19924;-64
2022/01/27 00:21:04;;;;;;;;;;;;;;;-7.80;98.69;99566.19;5095443;28;19935;-63
2022/01/27 00:23:31;;;;;;;;;;;;;;;-7.76;98.39;99560.25;5095123;28;20079;-66
2022/01/27 00:25:59;;;;;;;;;;;;;;;-7.81;98.50;99550.16;5095036;28;19924;-63
2022/01/27 00:28:25;;;;;;;;;;;;;;;-7.80;98.50;99549.34;5095080;28;19924;-63
2022/01/27 00:30:52;;;;;;;;;;;;;;;-7.75;98.72;99550.19;5094971;28;19931;-65
2022/01/27 00:33:18;;;;;;;;;;;;;;;-7.74;98.82;99540.91;5094815;28;19924;-65
2022/01/27 00:35:45;;;;;;;;;;;;;;;-7.61;98.30;99529.13;5094853;28;19954;-64
2022/01/27 00:38:12;;;;;;;;;;;;;;;-7.68;98.22;99533.31;5094797;28;19931;-67
2022/01/27 00:40:38;;;;;;;;;;;;;;;-7.50;97.67;99523.22;5094868;28;20371;-62
2022/01/27 00:43:06;;;;;;;;;;;;;;;-7.14;96.65;99520.59;5094611;28;19935;-66
2022/01/27 00:45:33;;;;;;;;;;;;;;;-6.96;95.15;99528.13;5094773;28;19931;-63
2022/01/27 00:48:03;;;;;;;;;;;;;;;-7.00;95.17;99528.97;5094913;28;19924;-62
2022/01/27 00:50:31;;;;;;;;;;;;;;;-7.05;95.65;99528.16;5094965;28;19924;-66
2022/01/27 00:53:00;;;;;;;;;;;;;;;-7.15;95.84;99523.97;5093612;28;19962;-63
2022/01/27 00:55:29;;;;;;;;;;;;;;;-7.28;96.16;99518.09;5094723;28;19930;-64
2022/01/27 00:58:13;;;;;;;;;;;;;;;-7.29;96.91;99512.22;5094442;28;19923;-63
2022/01/27 01:00:51;;;;;;;;;;;;;;;-7.23;96.95;99513.88;5094560;28;19928;-64
2022/01/27 01:03:26;;;;;;;;;;;;;;;-7.07;96.25;99519.72;5094423;28;19924;-64
2022/01/27 01:06:09;;;;;;;;;;;;;;;-6.96;95.63;99517.16;5094217;28;19931;-67
2022/01/27 01:11:45;;;;;;;;;;;;;;;-6.89;96.07;99517.13;5085263;28;19924;-66
2022/01/27 01:17:00;;;;;;;;;;;;;;;-7.13;96.90;99509.66;5076864;28;20297;-68
2022/01/27 01:19:39;;;;;;;;;;;;;;;-7.30;97.45;99517.25;5094445;28;19924;-68
2022/01/27 01:29:25;;;;;;;;;;;;;;;-7.26;97.07;99512.19;5093921;28;19924;-64
2022/01/27 01:30:46;;;;;;;;;;;;;;;-7.34;97.93;99503.81;5093988;28;19931;-64
2022/01/27 01:33:21;;;;;;;;;;;;;;;-7.40;98.50;99518.97;5093832;28;19932;-64
2022/01/27 01:35:49;;;;;;;;;;;;;;;-7.42;98.86;99504.66;5094192;28;19977;-63
2022/01/27 01:38:17;;;;;;;;;;;;;;;-7.39;99.31;99505.50;5093774;28;20378;-64
2022/01/27 01:40:44;;;;;;;;;;;;;;;-7.39;99.45;99508.03;5093587;28;19924;-62
2022/01/27 01:43:11;;;;;;;;;;;;;;;-7.35;99.36;99501.28;5093279;28;19931;-68
2022/01/27 01:45:37;;;;;;;;;;;;;;;-7.17;98.45;99500.38;5093469;28;19932;-68
2022/01/27 01:48:04;;;;;;;;;;;;;;;-7.03;98.63;99503.72;5093493;28;19935;-64
2022/01/27 01:50:32;;;;;;;;;;;;;;;-6.84;97.53;99505.31;5093842;28;19924;-68
2022/01/27 01:52:59;;;;;;;;;;;;;;;-6.87;96.90;99502.78;5093545;28;20043;-67
2022/01/27 01:55:26;;;;;;;;;;;;;;;-6.64;96.16;99505.22;5093422;28;19924;-62
2022/01/27 01:57:53;;;;;;;;;;;;;;;-6.95;96.29;99502.00;5093259;28;19928;-63
2022/01/27 02:00:20;;;;;;;;;;;;;;;-7.12;97.48;99504.56;5093421;28;19928;-63
2022/01/27 02:02:46;;;;;;;;;;;;;;;-7.18;98.24;99496.19;5093420;28;20283;-63
2022/01/27 02:05:13;;;;;;;;;;;;;;;-7.20;98.36;99497.88;5093077;28;19931;-63
2022/01/27 02:07:54;;;;;;;;;;;;;;;-7.19;99.17;99494.47;5093438;28;19947;-62
2022/01/27 02:10:34;;;;;;;;;;;;;;;-7.19;99.14;99484.38;5093332;28;19930;-62
2022/01/27 02:18:29;;;;;;;;;;;;;;;-7.29;99.67;99478.53;5093125;28;19947;-63
2022/01/27 02:20:57;;;;;;;;;;;;;;;-7.26;99.80;99476.81;5093061;28;19935;-64
2022/01/27 02:23:24;;;;;;;;;;;;;;;-7.28;99.47;99470.09;5092774;28;19924;-63
2022/01/27 02:25:51;;;;;;;;;;;;;;;-7.13;99.61;99457.41;5093140;28;19924;-62
2022/01/27 02:28:17;;;;;;;;;;;;;;;-7.08;98.81;99470.03;5093094;28;19931;-62
2022/01/27 02:30:44;;;;;;;;;;;;;;;-7.04;98.80;99459.91;5092852;28;20413;-67
2022/01/27 02:33:11;;;;;;;;;;;;;;;-6.98;97.94;99465.78;5092814;28;19928;-66
2022/01/27 02:35:37;;;;;;;;;;;;;;;-7.01;98.26;99459.03;5092765;28;19924;-62
2022/01/27 02:38:06;;;;;;;;;;;;;;;-7.07;98.14;99456.53;5092786;28;20447;-62
2022/01/27 02:40:35;;;;;;;;;;;;;;;-7.07;98.68;99457.34;5092844;28;19997;-67
2022/01/27 02:43:02;;;;;;;;;;;;;;;-7.12;98.71;99456.53;5092805;28;19931;-68
2022/01/27 02:45:32;;;;;;;;;;;;;;;-7.13;98.92;99448.97;5093060;28;19956;-68
2022/01/27 02:47:59;;;;;;;;;;;;;;;-7.14;99.13;99444.75;5092607;28;19970;-68
2022/01/27 02:50:25;;;;;;;;;;;;;;;-7.15;99.14;99443.91;5092549;28;19928;-69
2022/01/27 02:52:52;;;;;;;;;;;;;;;-7.06;98.70;99435.47;5093092;28;19928;-68
2022/01/27 02:55:20;;;;;;;;;;;;;;;-7.10;98.92;99433.78;5092898;28;19924;-68
2022/01/27 02:57:46;;;;;;;;;;;;;;;-7.13;99.11;99427.06;5092478;28;20294;-69
2022/01/27 03:00:13;;;;;;;;;;;;;;;-7.08;98.47;99424.50;5092437;28;19932;-68
2022/01/27 03:02:40;;;;;;;;;;;;;;;-6.91;98.29;99426.94;5092407;28;19924;-67
2022/01/27 03:05:07;;;;;;;;;;;;;;;-6.84;97.78;99418.47;5092400;28;19931;-68
2022/01/27 03:07:33;;;;;;;;;;;;;;;-6.95;98.18;99426.13;5092816;28;19931;-69
2022/01/27 03:10:00;;;;;;;;;;;;;;;-6.95;98.25;99421.06;5092388;28;19931;-69
2022/01/27 03:12:31;;;;;;;;;;;;;;;-6.85;98.19;99424.41;5092272;28;19924;-68
2022/01/27 03:15:00;;;;;;;;;;;;;;;-6.83;97.74;99415.94;5092415;28;19924;-68
2022/01/27 03:17:26;;;;;;;;;;;;;;;-6.65;96.62;99411.63;5096316;28;19924;-68
2022/01/27 03:19:53;;;;;;;;;;;;;;;-6.76;97.18;99415.91;5096720;28;19924;-69
2022/01/27 03:22:19;;;;;;;;;;;;;;;-6.70;96.89;99408.28;5096334;28;19925;-68
2022/01/27 03:24:46;;;;;;;;;;;;;;;-6.66;96.44;99412.47;5096017;28;19924;-63
2022/01/27 03:27:18;;;;;;;;;;;;;;;-6.62;96.32;99401.47;5096341;28;20301;-67
2022/01/27 03:29:46;;;;;;;;;;;;;;;-6.60;96.35;99405.69;5096206;28;19924;-61
2022/01/27 03:32:13;;;;;;;;;;;;;;;-6.69;96.57;99409.97;5096144;28;19925;-62
2022/01/27 03:34:40;;;;;;;;;;;;;;;-6.79;96.84;99404.13;5096122;28;19931;-62
2022/01/27 03:37:06;;;;;;;;;;;;;;;-6.84;97.60;99399.06;5096056;28;19924;-63
2022/01/27 03:39:36;;;;;;;;;;;;;;;-6.90;97.74;99400.81;5096043;28;20283;-67
2022/01/27 03:42:03;;;;;;;;;;;;;;;-6.82;97.63;99394.03;5095861;28;20414;-61
2022/01/27 03:44:29;;;;;;;;;;;;;;;-6.86;97.46;99395.75;5095755;28;19924;-62
2022/01/27 03:46:57;;;;;;;;;;;;;;;-6.72;97.44;99398.16;5096285;28;19928;-63
2022/01/27 03:49:24;;;;;;;;;;;;;;;-6.47;96.59;99392.91;5095951;28;19924;-62
2022/01/27 03:51:51;;;;;;;;;;;;;;;-6.66;96.13;99394.75;5095746;28;19931;-62
2022/01/27 03:54:18;;;;;;;;;;;;;;;-6.85;97.48;99377.19;5095718;28;20010;-62
2022/01/27 03:56:45;;;;;;;;;;;;;;;-6.75;97.23;99377.13;5095540;28;19928;-62
2022/01/27 03:59:12;;;;;;;;;;;;;;;-6.91;97.37;99364.59;5095806;28;19932;-63
2022/01/27 04:01:39;;;;;;;;;;;;;;;-6.90;98.04;99363.72;5095600;28;19924;-64
2022/01/27 04:04:07;;;;;;;;;;;;;;;-6.66;96.90;99366.94;5095540;28;19928;-67
2022/01/27 04:06:35;;;;;;;;;;;;;;;-6.67;96.78;99366.09;5095528;28;19935;-68
2022/01/27 04:09:03;;;;;;;;;;;;;;;-6.68;97.21;99361.91;5095515;28;19924;-65
2022/01/27 04:11:30;;;;;;;;;;;;;;;-6.36;95.96;99360.78;5095454;28;19931;-64
2022/01/27 04:13:57;;;;;;;;;;;;;;;-6.27;95.13;99363.22;5096054;28;19924;-66
2022/01/27 04:16:23;;;;;;;;;;;;;;;-6.58;95.91;99357.59;5095697;28;19931;-65
2022/01/27 04:18:50;;;;;;;;;;;;;;;-6.68;96.08;99361.91;5095213;28;19924;-69
2022/01/27 04:21:18;;;;;;;;;;;;;;;-6.85;97.78;99354.41;5095279;28;20294;-67
2022/01/27 04:23:45;;;;;;;;;;;;;;;-6.92;98.32;99346.88;5095139;28;20317;-63
2022/01/27 04:26:13;;;;;;;;;;;;;;;-6.96;98.74;99348.59;5094836;28;19924;-68
2022/01/27 04:28:41;;;;;;;;;;;;;;;-6.90;98.96;99358.66;5095503;28;20292;-67
2022/01/27 04:31:09;;;;;;;;;;;;;;;-6.84;98.35;99352.72;5095191;28;19924;-69
2022/01/27 04:33:37;;;;;;;;;;;;;;;-6.86;98.08;99355.28;5095129;28;19924;-68
2022/01/27 04:36:10;;;;;;;;;;;;;;;-6.92;98.77;99350.25;5095120;28;19931;-68
2022/01/27 04:38:44;;;;;;;;;;;;;;;-6.83;99.03;99352.72;5094779;28;20356;-70
2022/01/27 04:41:16;;;;;;;;;;;;;;;-6.76;98.25;99348.44;5095444;28;19928;-66
2022/01/27 04:43:48;;;;;;;;;;;;;;;-6.59;96.95;99348.31;5094573;28;19931;-66
2022/01/27 04:46:24;;;;;;;;;;;;;;;-6.82;97.64;99351.84;5094842;28;19928;-64
2022/01/27 04:48:54;;;;;;;;;;;;;;;-6.86;98.25;99350.22;5094689;28;19969;-66
2022/01/27 04:51:23;;;;;;;;;;;;;;;-6.77;98.52;99343.41;5094650;28;19935;-65
2022/01/27 04:53:56;;;;;;;;;;;;;;;-6.73;97.70;99345.03;5094511;28;19924;-67
2022/01/27 04:56:25;;;;;;;;;;;;;;;-6.73;97.27;99345.03;5094687;28;19924;-68
2022/01/27 04:58:56;;;;;;;;;;;;;;;-6.81;97.67;99348.50;5094490;28;20443;-68
2022/01/27 05:01:29;;;;;;;;;;;;;;;-6.86;98.49;99347.69;5094481;28;19978;-68
2022/01/27 05:04:00;;;;;;;;;;;;;;;-6.67;97.52;99342.50;5094426;28;19928;-67
2022/01/27 05:06:27;;;;;;;;;;;;;;;-6.81;98.19;99343.44;5094560;28;19965;-66
2022/01/27 05:08:55;;;;;;;;;;;;;;;-6.71;98.06;99343.34;5094112;28;19924;-68
2022/01/27 05:11:26;;;;;;;;;;;;;;;-6.77;97.68;99341.72;5094251;28;19935;-65
2022/01/27 05:13:56;;;;;;;;;;;;;;;-6.79;98.09;99335.81;5094504;28;19930;-65
2022/01/27 05:16:23;;;;;;;;;;;;;;;-6.88;98.47;99331.69;5094077;28;20378;-68
2022/01/27 05:18:49;;;;;;;;;;;;;;;-6.82;98.67;99324.03;5094144;28;19924;-68
2022/01/27 05:21:16;;;;;;;;;;;;;;;-6.84;98.36;99327.44;5094128;28;19924;-67
2022/01/27 05:23:43;;;;;;;;;;;;;;;-6.82;98.39;99323.19;5094264;28;20263;-67
2022/01/27 05:26:11;;;;;;;;;;;;;;;-6.90;98.54;99323.25;5093820;28;19924;-68
2022/01/27 05:28:37;;;;;;;;;;;;;;;-6.92;99.29;99327.47;5093970;28;20310;-68
2022/01/27 05:31:05;;;;;;;;;;;;;;;-6.79;98.99;99318.13;5093813;28;19928;-66
2022/01/27 05:33:32;;;;;;;;;;;;;;;-6.58;98.07;99330.63;5093794;28;20026;-67
2022/01/27 05:35:58;;;;;;;;;;;;;;;-6.66;97.53;99327.28;5094001;28;19939;-66
2022/01/27 05:38:25;;;;;;;;;;;;;;;-6.76;98.18;99324.84;5093110;28;19924;-67
2022/01/27 05:40:51;;;;;;;;;;;;;;;-6.82;98.61;99330.78;5093793;28;19924;-68
2022/01/27 05:43:19;;;;;;;;;;;;;;;-6.71;97.98;99325.66;5093571;28;19924;-67
2022/01/27 05:45:46;;;;;;;;;;;;;;;-6.74;98.32;99330.72;5093639;28;19924;-68
2022/01/27 05:48:13;;;;;;;;;;;;;;;-6.77;98.42;99338.34;5093739;28;19923;-63
2022/01/27 05:50:39;;;;;;;;;;;;;;;-6.72;98.90;99339.16;5093290;28;20348;-68
2022/01/27 05:53:06;;;;;;;;;;;;;;;-6.78;99.01;99340.03;5093448;28;20382;-68
2022/01/27 05:55:33;;;;;;;;;;;;;;;-6.72;98.92;99326.50;5093434;28;19924;-67
2022/01/27 05:57:59;;;;;;;;;;;;;;;-6.54;97.44;99341.53;5093187;28;19924;-68
2022/01/27 06:00:28;;;;;;;;;;;;;;;-6.73;98.06;99333.25;5093204;28;20390;-67
2022/01/27 06:02:55;;;;;;;;;;;;;;;-6.72;97.91;99336.63;5093037;28;19928;-68
2022/01/27 06:05:21;;;;;;;;;;;;;;;-6.72;98.60;99342.53;5093120;28;19931;-67
2022/01/27 06:07:48;;;;;;;;;;;;;;;-6.69;98.68;99339.13;5093448;28;19924;-67
2022/01/27 06:10:14;;;;;;;;;;;;;;;-6.64;98.64;99348.34;5093259;28;19935;-69
2022/01/27 06:12:45;;;;;;;;;;;;;;;-6.55;97.73;99347.47;5093664;28;20279;-69
2022/01/27 06:15:11;;;;;;;;;;;;;;;-6.53;97.35;99353.31;5093183;28;19934;-66
2022/01/27 06:17:39;;;;;;;;;;;;;;;-6.64;97.98;99347.53;5093229;28;19924;-65
2022/01/27 06:20:07;;;;;;;;;;;;;;;-6.47;97.35;99342.31;5093164;28;19947;-66
2022/01/27 06:22:33;;;;;;;;;;;;;;;-6.52;97.32;99354.16;5093203;28;19928;-66
2022/01/27 06:25:00;;;;;;;;;;;;;;;-6.55;97.74;99349.13;5093085;28;19924;-69
2022/01/27 06:27:26;;;;;;;;;;;;;;;-6.58;97.97;99344.94;5092952;28;19928;-69
2022/01/27 06:29:53;;;;;;;;;;;;;;;-6.65;98.12;99333.22;5093132;28;19924;-69
2022/01/27 06:32:19;;;;;;;;;;;;;;;-6.58;98.36;99330.63;5093231;28;19924;-69
2022/01/27 06:34:47;;;;;;;;;;;;;;;-6.22;97.37;99333.63;5092770;28;19938;-66
2022/01/27 06:37:14;;;;;;;;;;;;;;;-6.10;96.30;99335.22;5092676;28;20369;-64
2022/01/27 06:39:41;;;;;;;;;;;;;;;-5.94;95.65;99336.72;5092825;28;19924;-69
2022/01/27 06:42:08;;;;;;;;;;;;;;;-6.08;95.43;99343.66;5092803;28;19931;-66
2022/01/27 06:44:35;;;;;;;;;;;;;;;-6.17;95.89;99348.78;5092949;28;19928;-69
2022/01/27 06:47:01;;;;;;;;;;;;;;;-6.42;96.64;99345.63;5092624;28;19924;-68
2022/01/27 06:49:28;;;;;;;;;;;;;;;-6.56;97.58;99343.22;5093750;28;19935;-68
2022/01/27 06:51:56;;;;;;;;;;;;;;;-6.65;98.11;99340.78;5095390;28;19928;-66
2022/01/27 06:54:22;;;;;;;;;;;;;;;-6.66;98.68;99344.16;5094029;28;19947;-69
2022/01/27 06:56:49;;;;;;;;;;;;;;;-6.72;99.00;99341.69;5095611;28;19924;-69
2022/01/27 06:59:16;;;;;;;;;;;;;;;-6.76;99.28;99333.25;5097121;28;19928;-69
2022/01/27 07:01:42;;;;;;;;;;;;;;;-6.73;99.24;99337.47;5096389;28;19924;-69
2022/01/27 07:04:09;;;;;;;;;;;;;;;-6.58;99.06;99333.16;5096441;28;20390;-69
2022/01/27 07:06:36;;;;;;;;;;;;;;;-6.34;97.37;99328.72;5096777;28;19928;-68
2022/01/27 07:09:04;;;;;;;;;;;;;;;-6.51;97.79;99333.09;5096819;28;20328;-69
2022/01/27 07:11:31;;;;;;;;;;;;;;;-6.63;98.50;99334.88;5095620;28;19931;-69
2022/01/27 07:13:57;;;;;;;;;;;;;;;-6.63;98.85;99336.53;5097184;28;19924;-69
2022/01/27 07:16:24;;;;;;;;;;;;;;;-6.65;99.20;99334.03;5096655;28;19931;-72
2022/01/27 07:18:52;;;;;;;;;;;;;;;-6.64;98.71;99338.22;5096540;28;19924;-73
2022/01/27 07:21:18;;;;;;;;;;;;;;;-6.63;99.35;99329.81;5095910;28;19924;-71
2022/01/27 07:23:45;;;;;;;;;;;;;;;-6.57;98.73;99336.50;5096538;28;20090;-70
2022/01/27 07:26:14;;;;;;;;;;;;;;;-6.39;97.95;99331.28;5096292;28;19931;-70
2022/01/27 07:28:40;;;;;;;;;;;;;;;-6.19;96.85;99332.78;5095296;28;19970;-67
2022/01/27 07:31:07;;;;;;;;;;;;;;;-5.94;95.62;99329.13;5096374;28;19924;-69
2022/01/27 07:33:33;;;;;;;;;;;;;;;-6.33;96.65;99332.91;5096074;28;19931;-70
2022/01/27 07:36:00;;;;;;;;;;;;;;;-6.48;97.34;99323.75;5095897;28;19927;-69
2022/01/27 07:38:27;;;;;;;;;;;;;;;-6.51;97.93;99328.84;5095955;28;19924;-69
2022/01/27 07:40:53;;;;;;;;;;;;;;;-6.56;98.37;99325.53;5096293;28;19924;-69
2022/01/27 07:43:21;;;;;;;;;;;;;;;-6.39;98.52;99323.69;5095809;28;19924;-68
2022/01/27 07:45:48;;;;;;;;;;;;;;;-6.30;97.75;99324.44;5095169;28;19924;-70
2022/01/27 07:48:15;;;;;;;;;;;;;;;-6.31;96.87;99321.09;5095488;28;19924;-69
2022/01/27 07:50:41;;;;;;;;;;;;;;;-6.45;97.78;99321.19;5095704;28;19931;-64
2022/01/27 07:53:08;;;;;;;;;;;;;;;-6.40;98.19;99324.53;5095950;28;19931;-70
2022/01/27 07:55:34;;;;;;;;;;;;;;;-6.18;96.89;99319.28;5095765;28;19924;-70
2022/01/27 07:58:01;;;;;;;;;;;;;;;-6.17;97.00;99318.41;5095479;28;19925;-67
2022/01/27 08:00:29;;;;;;;;;;;;;;;-6.35;97.14;99317.72;5095638;28;19924;-63
2022/01/27 08:02:55;;;;;;;;;;;;;;;-6.42;97.69;99320.31;5093931;28;19935;-68
2022/01/27 08:05:22;;;;;;;;;;;;;;;-6.47;98.17;99325.47;5095354;28;19924;-68
2022/01/27 08:07:49;;;;;;;;;;;;;;;-6.52;98.33;99328.84;5094547;28;19935;-70
2022/01/27 08:10:15;;;;;;;;;;;;;;;-6.55;98.53;99333.94;5093757;28;19931;-69
2022/01/27 08:12:42;;;;;;;;;;;;;;;-6.53;98.59;99330.56;5094829;28;20381;-68
2022/01/27 08:15:11;;;;;;;;;;;;;;;-6.50;98.42;99327.16;5095549;28;19924;-68
2022/01/27 08:17:39;;;;;;;;;;;;;;;-6.46;98.77;99321.22;5091677;28;20022;-69
2022/01/27 08:20:07;;;;;;;;;;;;;;;-6.38;98.34;99327.06;5094345;28;19947;-70
2022/01/27 08:22:37;;;;;;;;;;;;;;;-6.35;98.25;99324.50;5094508;28;19928;-70
2022/01/27 08:25:03;;;;;;;;;;;;;;;-6.37;98.12;99326.19;5093774;28;19928;-70
2022/01/27 08:27:31;;;;;;;;;;;;;;;-6.39;98.24;99328.75;5093331;28;19938;-66
2022/01/27 08:30:02;;;;;;;;;;;;;;;-6.39;98.38;99315.25;5094295;28;19924;-70
2022/01/27 08:32:40;;;;;;;;;;;;;;;-6.39;98.33;99320.31;5095472;28;19930;-69
2022/01/27 08:35:10;;;;;;;;;;;;;;;-6.41;98.38;99314.44;5093052;28;19970;-65
2022/01/27 08:37:37;;;;;;;;;;;;;;;-6.23;98.38;99321.00;5092850;28;19979;-69
2022/01/27 08:40:04;;;;;;;;;;;;;;;-6.01;97.12;99319.09;5093842;28;19924;-68
2022/01/27 08:42:30;;;;;;;;;;;;;;;-6.04;95.96;99312.34;5094218;28;19931;-64
2022/01/27 08:44:57;;;;;;;;;;;;;;;-6.12;97.01;99321.72;5092946;28;19924;-69
2022/01/27 08:47:23;;;;;;;;;;;;;;;-5.94;96.68;99315.63;5093977;28;19923;-70
2022/01/27 08:49:50;;;;;;;;;;;;;;;-5.99;96.48;99310.63;5093998;28;19931;-69
2022/01/27 08:52:19;;;;;;;;;;;;;;;-6.11;96.94;99320.91;5093415;28;19931;-69
2022/01/27 08:54:45;;;;;;;;;;;;;;;-6.13;97.08;99318.38;5092035;28;19931;-68
2022/01/27 08:57:12;;;;;;;;;;;;;;;-6.16;97.08;99315.03;5093632;28;19924;-65
2022/01/27 08:59:39;;;;;;;;;;;;;;;-6.20;97.49;99313.38;5094576;28;19924;-69
2022/01/27 09:02:06;;;;;;;;;;;;;;;-6.11;97.91;99317.50;5092825;28;19932;-69
2022/01/27 09:04:32;;;;;;;;;;;;;;;-5.96;96.29;99312.28;5092637;28;19935;-66
2022/01/27 09:06:59;;;;;;;;;;;;;;;-5.90;96.45;99312.19;5093590;28;19924;-69
2022/01/27 09:09:27;;;;;;;;;;;;;;;-5.86;95.75;99310.44;5093992;28;19924;-69
2022/01/27 09:11:55;;;;;;;;;;;;;;;-6.01;95.93;99316.56;5090933;28;19948;-69
2022/01/27 09:14:22;;;;;;;;;;;;;;;-6.12;97.21;99319.19;5092921;28;20026;-68
2022/01/27 09:16:49;;;;;;;;;;;;;;;-5.86;96.14;99306.22;5093284;28;19962;-69
2022/01/27 09:19:17;;;;;;;;;;;;;;;-5.96;96.07;99319.88;5093614;28;19932;-69
2022/01/27 09:21:46;;;;;;;;;;;;;;;-5.88;95.78;99314.69;5092346;28;19971;-68
2022/01/27 09:24:15;;;;;;;;;;;;;;;-5.94;95.51;99319.00;5092397;28;20286;-69
2022/01/27 09:26:51;;;;;;;;;;;;;;;-5.84;95.45;99314.66;5093014;28;19924;-69
2022/01/27 09:29:19;;;;;;;;;;;;;;;-5.84;95.84;99309.56;5092301;28;19925;-69
2022/01/27 09:31:46;;;;;;;;;;;;;;;-5.75;95.24;99304.41;5092327;28;20023;-70
2022/01/27 09:34:12;;;;;;;;;;;;;;;-5.53;94.51;99307.50;5092736;28;19924;-69
2022/01/27 09:36:39;;;;;;;;;;;;;;;-5.72;94.65;99303.53;5093493;28;19926;-66
2022/01/27 09:39:06;;;;;;;;;;;;;;;-5.85;95.68;99312.16;5091514;28;19932;-69
2022/01/27 09:41:34;;;;;;;;;;;;;;;-5.71;95.39;99310.28;5092603;28;19932;-69
2022/01/27 09:44:03;;;;;;;;;;;;;;;-5.68;95.43;99307.69;5092518;28;19931;-68
2022/01/27 09:46:30;;;;;;;;;;;;;;;-5.71;94.78;99305.22;5092063;28;19995;-68
2022/01/27 09:48:56;;;;;;;;;;;;;;;-5.73;95.43;99312.84;5091658;28;19928;-68
2022/01/27 09:51:38;;;;;;;;;;;;;;;-5.71;95.17;99306.03;5091811;28;19924;-69
2022/01/27 09:54:04;;;;;;;;;;;;;;;-5.53;94.52;99307.50;5093544;28;19969;-69
2022/01/27 09:56:31;;;;;;;;;;;;;;;-5.60;94.33;99300.00;5091658;28;19932;-69
2022/01/27 09:58:58;;;;;;;;;;;;;;;-5.63;94.49;99298.34;5092019;28;20298;-69
2022/01/27 10:01:26;;;;;;;;;;;;;;;-5.52;94.50;99299.06;5090543;28;19924;-69
2022/01/27 10:03:53;;;;;;;;;;;;;;;-5.75;95.06;99296.81;5092433;28;19931;-69
2022/01/27 10:06:21;;;;;;;;;;;;;;;-5.60;94.43;99298.31;5091645;28;19978;-65
2022/01/27 10:09:10;;;;;;;;;;;;;;;-5.75;95.34;99303.59;5092491;28;20284;-69
2022/01/27 10:11:36;;;;;;;;;;;;;;;-5.59;94.61;99302.53;5092885;28;19942;-65
2022/01/27 10:14:16;;;;;;;;;;;;;;;-5.55;94.02;99306.72;5091770;28;19924;-68
2022/01/27 10:16:44;;;;;;;;;;;;;;;-5.53;94.60;99304.97;5091476;28;19924;-64
2022/01/27 10:19:11;;;;;;;;;;;;;;;-5.39;94.10;99311.59;5091425;28;19928;-62
2022/01/27 10:21:38;;;;;;;;;;;;;;;-5.61;94.27;99306.78;5092683;28;19924;-61
2022/01/27 10:24:14;;;;;;;;;;;;;;;-5.61;94.79;99305.94;5090601;28;20003;-63
2022/01/27 10:26:44;;;;;;;;;;;;;;;-5.46;94.94;99313.34;5092077;28;19935;-62
2022/01/27 10:29:15;;;;;;;;;;;;;;;-5.58;95.12;99309.25;5092138;28;19967;-62
2022/01/27 10:31:42;;;;;;;;;;;;;;;-5.53;94.45;99309.22;5091714;28;19928;-68
2022/01/27 10:34:11;;;;;;;;;;;;;;;-5.45;94.77;99312.47;5090797;28;20397;-68
2022/01/27 10:36:40;;;;;;;;;;;;;;;-5.33;94.32;99309.78;5090706;28;19924;-63
2022/01/27 10:39:08;;;;;;;;;;;;;;;-5.47;94.12;99309.97;5092864;28;19931;-69
2022/01/27 10:41:35;;;;;;;;;;;;;;;-5.44;94.50;99319.25;5091442;28;19925;-68
2022/01/27 10:44:06;;;;;;;;;;;;;;;-5.51;94.98;99321.00;5090783;28;19932;-69
2022/01/27 10:46:38;;;;;;;;;;;;;;;-5.56;95.67;99311.78;5091304;28;20285;-69
2022/01/27 10:49:10;;;;;;;;;;;;;;;-5.63;96.24;99322.84;5092236;28;20449;-68
2022/01/27 10:51:44;;;;;;;;;;;;;;;-5.53;96.01;99311.75;5090241;28;19931;-67
2022/01/27 10:54:19;;;;;;;;;;;;;;;-5.52;95.64;99316.81;5091622;28;19928;-64
2022/01/27 10:56:46;;;;;;;;;;;;;;;-5.53;95.49;99320.19;5091434;28;20312;-67
2022/01/27 10:59:13;;;;;;;;;;;;;;;-5.48;96.04;99322.66;5091183;28;19927;-62
2022/01/27 11:01:40;;;;;;;;;;;;;;;-5.54;95.74;99320.22;5090734;28;19939;-68
2022/01/27 11:04:09;;;;;;;;;;;;;;;-5.52;96.31;99309.19;5090952;28;19931;-68
2022/01/27 11:06:36;;;;;;;;;;;;;;;-5.55;95.87;99306.72;5092509;28;20362;-65
2022/01/27 11:09:08;;;;;;;;;;;;;;;-5.42;95.89;99302.31;5089446;28;20503;-69
2022/01/27 11:11:35;;;;;;;;;;;;;;;-5.16;94.54;99301.97;5091435;28;19924;-66
2022/01/27 11:14:02;;;;;;;;;;;;;;;-5.48;95.14;99300.69;5091856;28;19924;-69
2022/01/27 11:16:36;;;;;;;;;;;;;;;-5.34;95.22;99299.69;5091182;28;20374;-67
2022/01/27 11:19:22;;;;;;;;;;;;;;;-5.37;95.36;99299.69;5090738;28;19924;-69
2022/01/27 11:21:54;;;;;;;;;;;;;;;-5.47;95.10;99299.84;5091487;28;19924;-67
2022/01/27 11:24:27;;;;;;;;;;;;;;;-5.49;96.30;99295.66;5091953;28;19973;-65
2022/01/27 11:26:56;;;;;;;;;;;;;;;-5.49;96.48;99296.47;5090027;28;19931;-68
2022/01/27 11:29:24;;;;;;;;;;;;;;;-5.46;96.65;99295.59;5090118;28;20286;-69
2022/01/27 11:31:55;;;;;;;;;;;;;;;-5.34;95.97;99292.91;5091417;28;19924;-67
2022/01/27 11:34:23;;;;;;;;;;;;;;;-5.23;95.89;99284.31;5091887;28;19958;-68
2022/01/27 11:37:03;;;;;;;;;;;;;;;-5.15;94.61;99280.78;5091544;28;20389;-69
2022/01/27 11:39:51;;;;;;;;;;;;;;;-5.00;94.58;99277.19;5095193;28;19932;-69
2022/01/27 11:42:30;;;;;;;;;;;;;;;-5.11;94.42;99282.44;5094622;28;19924;-68
2022/01/27 11:45:16;;;;;;;;;;;;;;;-4.99;93.98;99278.03;5093888;28;19924;-66
2022/01/27 11:47:50;;;;;;;;;;;;;;;-5.01;93.79;99272.13;5094451;28;19931;-63
2022/01/27 11:50:30;;;;;;;;;;;;;;;-5.04;93.81;99278.09;5094882;28;19963;-68
2022/01/27 11:52:57;;;;;;;;;;;;;;;-5.04;93.90;99273.03;5094919;28;19924;-68
2022/01/27 11:55:44;;;;;;;;;;;;;;;-5.20;94.49;99281.72;5093980;28;20013;-68
2022/01/27 11:58:15;;;;;;;;;;;;;;;-5.19;95.11;99281.69;5094422;28;19924;-68
2022/01/27 12:01:01;;;;;;;;;;;;;;;-5.21;94.97;99285.09;5094738;28;19924;-68
2022/01/27 12:03:29;;;;;;;;;;;;;;;-5.19;95.26;99278.31;5093558;28;19924;-67
2022/01/27 12:06:14;;;;;;;;;;;;;;;-5.39;95.71;99284.53;5094559;28;19924;-68
2022/01/27 12:08:40;;;;;;;;;;;;;;;-5.49;96.11;99280.44;5094658;28;19974;-68
2022/01/27 12:11:10;;;;;;;;;;;;;;;-5.42;96.31;99279.50;5094664;28;20259;-68
2022/01/27 12:13:56;;;;;;;;;;;;;;;-5.23;96.11;99289.38;5094163;28;19924;-65
2022/01/27 12:19:08;;;;;;;;;;;;;;;-5.03;94.46;99288.22;5094726;28;20305;-68
2022/01/27 12:21:36;;;;;;;;;;;;;;;-5.40;96.10;99282.84;5093232;28;19931;-65
2022/01/27 12:24:21;;;;;;;;;;;;;;;-5.44;96.27;99293.91;5090744;28;20023;-67
2022/01/27 12:26:49;;;;;;;;;;;;;;;-5.49;96.06;99296.47;5094298;28;20021;-66
2022/01/27 12:29:23;;;;;;;;;;;;;;;-5.57;96.73;99300.81;5094151;28;19924;-68
2022/01/27 12:31:51;;;;;;;;;;;;;;;-5.38;96.29;99303.09;5092307;28;19974;-68
2022/01/27 12:34:19;;;;;;;;;;;;;;;-5.45;96.49;99304.88;5093489;28;19924;-68
2022/01/27 12:37:10;;;;;;;;;;;;;;;-5.51;96.41;99305.78;5094425;28;19924;-68
2022/01/27 12:39:37;;;;;;;;;;;;;;;-5.27;95.75;99306.31;5072943;28;19924;-68
2022/01/27 12:42:05;;;;;;;;;;;;;;;-5.16;95.49;99308.69;5093105;28;19924;-69
2022/01/27 12:44:32;;;;;;;;;;;;;;;-5.37;95.55;99298.03;5073652;28;20366;-69
2022/01/27 12:47:10;;;;;;;;;;;;;;;-5.46;96.79;99308.28;5074065;28;20345;-69
2022/01/27 12:49:40;;;;;;;;;;;;;;;-5.53;96.99;99291.47;5071822;28;20022;-69
2022/01/27 12:52:07;;;;;;;;;;;;;;;-5.49;97.35;99301.56;5073663;28;19928;-70
2022/01/27 12:54:34;;;;;;;;;;;;;;;-5.61;97.17;99300.88;5073167;28;20380;-67
2022/01/27 12:57:01;;;;;;;;;;;;;;;-5.65;97.44;99299.22;5072866;28;19925;-67
2022/01/27 12:59:32;;;;;;;;;;;;;;;-5.44;97.44;99303.19;5072603;28;20405;-68
2022/01/27 13:01:59;;;;;;;;;;;;;;;-5.36;96.74;99304.75;5073289;28;19924;-68
2022/01/27 13:04:27;;;;;;;;;;;;;;;-5.55;96.96;99301.66;5074114;28;19925;-68
2022/01/27 13:06:55;;;;;;;;;;;;;;;-5.71;97.87;99298.44;5071489;28;19924;-68
2022/01/27 13:09:22;;;;;;;;;;;;;;;-5.73;98.48;99302.72;5064961;28;19947;-68
2022/01/27 13:11:51;;;;;;;;;;;;;;;-5.62;97.92;99307.66;5073224;28;19936;-68
2022/01/27 13:14:18;;;;;;;;;;;;;;;-5.53;97.96;99312.56;5115686;22;20022;-67
2022/01/27 13:16:49;;;;;;;;;;;;;;;-5.17;95.85;99315.47;5153634;27;19930;-68